sensor_id;sensor_type;location;lat;lon;timestamp;P1;durP1;ratioP1;P2;durP2;ratioP2
55784;SDS011;41709;52.536;5.688;2023-01-29T00:00:39;14.15;;;8.57;;
55784;SDS011;41709;52.536;5.688;2023-01-29T00:03:04;11.73;;;8.45;;
55784;SDS011;41709;52.536;5.688;2023-01-29T00:05:30;12.05;;;8.40;;
55784;SDS011;41709;52.536;5.688;2023-01-29T00:07:56;12.40;;;8.00;;
55784;SDS011;41709;52.536;5.688;2023-01-29T00:10:22;12.40;;;7.82;;
55784;SDS011;41709;52.536;5.688;2023-01-29T00:12:49;12.18;;;7.82;;
55784;SDS011;41709;52.536;5.688;2023-01-29T00:15:15;13.07;;;8.38;;
55784;SDS011;41709;52.536;5.688;2023-01-29T00:17:41;12.27;;;8.35;;
55784;SDS011;41709;52.536;5.688;2023-01-29T00:20:07;13.75;;;8.68;;
55784;SDS011;41709;52.536;5.688;2023-01-29T00:22:33;13.25;;;8.63;;
55784;SDS011;41709;52.536;5.688;2023-01-29T00:24:59;11.82;;;8.85;;
55784;SDS011;41709;52.536;5.688;2023-01-29T00:27:24;14.40;;;8.88;;
55784;SDS011;41709;52.536;5.688;2023-01-29T00:29:50;14.30;;;9.75;;
55784;SDS011;41709;52.536;5.688;2023-01-29T00:32:33;11.90;;;8.05;;
55784;SDS011;41709;52.536;5.688;2023-01-29T00:34:59;13.77;;;8.93;;
55784;SDS011;41709;52.536;5.688;2023-01-29T00:37:24;13.30;;;9.68;;
55784;SDS011;41709;52.536;5.688;2023-01-29T00:39:50;13.93;;;9.30;;
55784;SDS011;41709;52.536;5.688;2023-01-29T00:42:15;16.75;;;9.85;;
55784;SDS011;41709;52.536;5.688;2023-01-29T00:44:59;18.13;;;9.35;;
55784;SDS011;41709;52.536;5.688;2023-01-29T00:47:25;15.60;;;8.45;;
55784;SDS011;41709;52.536;5.688;2023-01-29T00:50:03;13.75;;;8.65;;
55784;SDS011;41709;52.536;5.688;2023-01-29T00:52:30;14.55;;;8.43;;
55784;SDS011;41709;52.536;5.688;2023-01-29T00:54:57;11.35;;;8.65;;
55784;SDS011;41709;52.536;5.688;2023-01-29T00:57:25;15.15;;;9.82;;
55784;SDS011;41709;52.536;5.688;2023-01-29T00:59:51;24.13;;;9.02;;
55784;SDS011;41709;52.536;5.688;2023-01-29T01:02:17;15.45;;;8.40;;
55784;SDS011;41709;52.536;5.688;2023-01-29T01:05:02;15.52;;;9.15;;
55784;SDS011;41709;52.536;5.688;2023-01-29T01:07:30;14.02;;;9.55;;
55784;SDS011;41709;52.536;5.688;2023-01-29T01:09:56;15.82;;;9.30;;
55784;SDS011;41709;52.536;5.688;2023-01-29T01:12:40;16.17;;;9.65;;
55784;SDS011;41709;52.536;5.688;2023-01-29T01:15:06;15.65;;;9.38;;
55784;SDS011;41709;52.536;5.688;2023-01-29T01:17:32;14.18;;;8.80;;
55784;SDS011;41709;52.536;5.688;2023-01-29T01:19:57;15.93;;;9.35;;
55784;SDS011;41709;52.536;5.688;2023-01-29T01:22:23;14.70;;;9.55;;
55784;SDS011;41709;52.536;5.688;2023-01-29T01:24:48;14.70;;;9.18;;
55784;SDS011;41709;52.536;5.688;2023-01-29T01:27:14;14.82;;;9.68;;
55784;SDS011;41709;52.536;5.688;2023-01-29T01:29:40;14.05;;;9.13;;
55784;SDS011;41709;52.536;5.688;2023-01-29T01:32:06;14.88;;;10.07;;
55784;SDS011;41709;52.536;5.688;2023-01-29T01:34:31;18.58;;;9.68;;
55784;SDS011;41709;52.536;5.688;2023-01-29T01:36:57;16.88;;;10.40;;
55784;SDS011;41709;52.536;5.688;2023-01-29T01:39:23;18.00;;;10.20;;
55784;SDS011;41709;52.536;5.688;2023-01-29T01:41:49;16.35;;;9.82;;
55784;SDS011;41709;52.536;5.688;2023-01-29T01:47:18;15.85;;;9.93;;
55784;SDS011;41709;52.536;5.688;2023-01-29T01:49:48;12.60;;;9.30;;
55784;SDS011;41709;52.536;5.688;2023-01-29T01:52:13;15.25;;;9.95;;
55784;SDS011;41709;52.536;5.688;2023-01-29T01:54:41;15.35;;;10.32;;
55784;SDS011;41709;52.536;5.688;2023-01-29T01:57:12;15.00;;;9.38;;
55784;SDS011;41709;52.536;5.688;2023-01-29T01:59:51;15.82;;;9.57;;
55784;SDS011;41709;52.536;5.688;2023-01-29T02:02:25;12.48;;;8.48;;
55784;SDS011;41709;52.536;5.688;2023-01-29T02:05:10;13.10;;;9.02;;
55784;SDS011;41709;52.536;5.688;2023-01-29T02:07:56;13.15;;;9.18;;
55784;SDS011;41709;52.536;5.688;2023-01-29T02:10:42;15.45;;;9.60;;
55784;SDS011;41709;52.536;5.688;2023-01-29T02:13:09;14.13;;;9.20;;
55784;SDS011;41709;52.536;5.688;2023-01-29T02:15:36;13.57;;;8.65;;
55784;SDS011;41709;52.536;5.688;2023-01-29T02:20:32;12.30;;;8.80;;
55784;SDS011;41709;52.536;5.688;2023-01-29T02:25:58;15.05;;;9.07;;
55784;SDS011;41709;52.536;5.688;2023-01-29T02:28:53;15.30;;;10.07;;
55784;SDS011;41709;52.536;5.688;2023-01-29T02:31:43;14.32;;;9.45;;
55784;SDS011;41709;52.536;5.688;2023-01-29T02:34:21;12.82;;;9.23;;
55784;SDS011;41709;52.536;5.688;2023-01-29T02:37:32;15.07;;;10.00;;
55784;SDS011;41709;52.536;5.688;2023-01-29T02:42:34;12.83;;;8.90;;
55784;SDS011;41709;52.536;5.688;2023-01-29T02:45:16;12.73;;;8.98;;
55784;SDS011;41709;52.536;5.688;2023-01-29T02:47:53;15.60;;;9.90;;
55784;SDS011;41709;52.536;5.688;2023-01-29T02:56:10;14.40;;;10.10;;
55784;SDS011;41709;52.536;5.688;2023-01-29T02:58:17;12.80;;;9.63;;
55784;SDS011;41709;52.536;5.688;2023-01-29T03:00:47;14.98;;;10.60;;
55784;SDS011;41709;52.536;5.688;2023-01-29T03:06:20;15.10;;;10.18;;
55784;SDS011;41709;52.536;5.688;2023-01-29T03:11:23;16.77;;;10.95;;
55784;SDS011;41709;52.536;5.688;2023-01-29T03:14:12;14.90;;;10.30;;
55784;SDS011;41709;52.536;5.688;2023-01-29T03:16:46;15.65;;;10.27;;
55784;SDS011;41709;52.536;5.688;2023-01-29T03:21:46;16.88;;;11.43;;
55784;SDS011;41709;52.536;5.688;2023-01-29T03:27:35;17.98;;;10.68;;
55784;SDS011;41709;52.536;5.688;2023-01-29T03:30:24;17.30;;;10.52;;
55784;SDS011;41709;52.536;5.688;2023-01-29T03:33:10;15.40;;;10.90;;
55784;SDS011;41709;52.536;5.688;2023-01-29T03:35:39;18.08;;;11.55;;
55784;SDS011;41709;52.536;5.688;2023-01-29T03:38:12;16.23;;;10.98;;
55784;SDS011;41709;52.536;5.688;2023-01-29T03:40:46;14.73;;;10.73;;
55784;SDS011;41709;52.536;5.688;2023-01-29T03:43:36;15.05;;;10.45;;
55784;SDS011;41709;52.536;5.688;2023-01-29T03:46:35;15.52;;;11.20;;
55784;SDS011;41709;52.536;5.688;2023-01-29T03:49:25;13.70;;;10.25;;
55784;SDS011;41709;52.536;5.688;2023-01-29T03:54:50;14.73;;;10.93;;
55784;SDS011;41709;52.536;5.688;2023-01-29T03:57:38;14.43;;;10.15;;
55784;SDS011;41709;52.536;5.688;2023-01-29T04:05:28;16.75;;;11.07;;
55784;SDS011;41709;52.536;5.688;2023-01-29T04:08:04;17.83;;;11.40;;
55784;SDS011;41709;52.536;5.688;2023-01-29T04:10:35;17.23;;;11.30;;
55784;SDS011;41709;52.536;5.688;2023-01-29T04:13:05;15.68;;;10.93;;
55784;SDS011;41709;52.536;5.688;2023-01-29T04:15:35;15.73;;;11.52;;
55784;SDS011;41709;52.536;5.688;2023-01-29T04:18:07;18.83;;;12.88;;
55784;SDS011;41709;52.536;5.688;2023-01-29T04:20:33;17.17;;;12.00;;
55784;SDS011;41709;52.536;5.688;2023-01-29T04:22:59;16.80;;;12.20;;
55784;SDS011;41709;52.536;5.688;2023-01-29T04:25:26;17.85;;;12.75;;
55784;SDS011;41709;52.536;5.688;2023-01-29T04:30:41;18.80;;;13.35;;
55784;SDS011;41709;52.536;5.688;2023-01-29T04:33:20;16.60;;;12.90;;
55784;SDS011;41709;52.536;5.688;2023-01-29T04:35:53;17.25;;;12.02;;
55784;SDS011;41709;52.536;5.688;2023-01-29T04:41:23;20.00;;;13.73;;
55784;SDS011;41709;52.536;5.688;2023-01-29T04:43:57;19.80;;;13.57;;
55784;SDS011;41709;52.536;5.688;2023-01-29T04:49:45;18.90;;;13.07;;
55784;SDS011;41709;52.536;5.688;2023-01-29T04:52:49;18.98;;;13.50;;
55784;SDS011;41709;52.536;5.688;2023-01-29T04:55:42;19.85;;;13.70;;
55784;SDS011;41709;52.536;5.688;2023-01-29T04:58:16;19.30;;;13.57;;
55784;SDS011;41709;52.536;5.688;2023-01-29T05:00:51;22.23;;;14.63;;
55784;SDS011;41709;52.536;5.688;2023-01-29T05:03:18;19.45;;;14.15;;
55784;SDS011;41709;52.536;5.688;2023-01-29T05:05:47;19.88;;;14.40;;
55784;SDS011;41709;52.536;5.688;2023-01-29T05:08:16;20.23;;;13.65;;
55784;SDS011;41709;52.536;5.688;2023-01-29T05:10:44;20.35;;;14.00;;
55784;SDS011;41709;52.536;5.688;2023-01-29T05:13:12;21.17;;;14.85;;
55784;SDS011;41709;52.536;5.688;2023-01-29T05:15:41;22.95;;;14.60;;
55784;SDS011;41709;52.536;5.688;2023-01-29T05:18:18;20.02;;;14.77;;
55784;SDS011;41709;52.536;5.688;2023-01-29T05:20:44;19.25;;;14.27;;
55784;SDS011;41709;52.536;5.688;2023-01-29T05:23:18;22.38;;;14.30;;
55784;SDS011;41709;52.536;5.688;2023-01-29T05:25:46;21.67;;;14.38;;
55784;SDS011;41709;52.536;5.688;2023-01-29T05:28:13;22.00;;;15.82;;
55784;SDS011;41709;52.536;5.688;2023-01-29T05:30:51;22.65;;;16.23;;
55784;SDS011;41709;52.536;5.688;2023-01-29T05:33:29;22.42;;;14.60;;
55784;SDS011;41709;52.536;5.688;2023-01-29T05:35:55;23.92;;;15.98;;
55784;SDS011;41709;52.536;5.688;2023-01-29T05:38:23;22.40;;;15.68;;
55784;SDS011;41709;52.536;5.688;2023-01-29T05:40:49;22.48;;;15.68;;
55784;SDS011;41709;52.536;5.688;2023-01-29T05:45:42;23.70;;;15.25;;
55784;SDS011;41709;52.536;5.688;2023-01-29T05:48:15;22.98;;;15.70;;
55784;SDS011;41709;52.536;5.688;2023-01-29T05:50:40;24.63;;;15.93;;
55784;SDS011;41709;52.536;5.688;2023-01-29T05:53:07;22.73;;;14.90;;
55784;SDS011;41709;52.536;5.688;2023-01-29T05:55:33;26.60;;;16.77;;
55784;SDS011;41709;52.536;5.688;2023-01-29T05:57:58;23.40;;;15.55;;
55784;SDS011;41709;52.536;5.688;2023-01-29T06:00:24;26.35;;;17.05;;
55784;SDS011;41709;52.536;5.688;2023-01-29T06:02:50;27.33;;;17.20;;
55784;SDS011;41709;52.536;5.688;2023-01-29T06:05:15;26.08;;;16.75;;
55784;SDS011;41709;52.536;5.688;2023-01-29T06:07:41;27.35;;;17.42;;
55784;SDS011;41709;52.536;5.688;2023-01-29T06:10:10;26.55;;;17.60;;
55784;SDS011;41709;52.536;5.688;2023-01-29T06:12:37;23.70;;;17.27;;
55784;SDS011;41709;52.536;5.688;2023-01-29T06:15:02;26.15;;;17.83;;
55784;SDS011;41709;52.536;5.688;2023-01-29T06:17:28;27.42;;;17.30;;
55784;SDS011;41709;52.536;5.688;2023-01-29T06:19:53;25.17;;;16.67;;
55784;SDS011;41709;52.536;5.688;2023-01-29T06:22:19;29.20;;;17.90;;
55784;SDS011;41709;52.536;5.688;2023-01-29T06:24:45;30.20;;;19.70;;
55784;SDS011;41709;52.536;5.688;2023-01-29T06:27:10;29.50;;;18.70;;
55784;SDS011;41709;52.536;5.688;2023-01-29T06:29:36;29.50;;;19.38;;
55784;SDS011;41709;52.536;5.688;2023-01-29T06:32:02;26.27;;;18.42;;
55784;SDS011;41709;52.536;5.688;2023-01-29T06:34:27;27.80;;;19.73;;
55784;SDS011;41709;52.536;5.688;2023-01-29T06:36:53;28.15;;;19.55;;
55784;SDS011;41709;52.536;5.688;2023-01-29T06:39:18;30.52;;;19.40;;
55784;SDS011;41709;52.536;5.688;2023-01-29T06:41:44;31.65;;;19.63;;
55784;SDS011;41709;52.536;5.688;2023-01-29T06:44:10;30.52;;;19.23;;
55784;SDS011;41709;52.536;5.688;2023-01-29T06:46:35;28.05;;;18.90;;
55784;SDS011;41709;52.536;5.688;2023-01-29T06:49:02;30.95;;;20.13;;
55784;SDS011;41709;52.536;5.688;2023-01-29T06:51:27;30.23;;;18.70;;
55784;SDS011;41709;52.536;5.688;2023-01-29T06:53:53;31.17;;;20.27;;
55784;SDS011;41709;52.536;5.688;2023-01-29T06:56:20;32.50;;;19.10;;
55784;SDS011;41709;52.536;5.688;2023-01-29T06:58:46;35.78;;;19.98;;
55784;SDS011;41709;52.536;5.688;2023-01-29T07:01:11;30.35;;;19.77;;
55784;SDS011;41709;52.536;5.688;2023-01-29T07:03:37;35.30;;;19.80;;
55784;SDS011;41709;52.536;5.688;2023-01-29T07:06:03;32.92;;;19.30;;
55784;SDS011;41709;52.536;5.688;2023-01-29T07:08:30;29.80;;;19.13;;
55784;SDS011;41709;52.536;5.688;2023-01-29T07:10:59;30.88;;;19.67;;
55784;SDS011;41709;52.536;5.688;2023-01-29T07:13:25;29.77;;;19.58;;
55784;SDS011;41709;52.536;5.688;2023-01-29T07:15:51;33.80;;;20.30;;
55784;SDS011;41709;52.536;5.688;2023-01-29T07:18:16;32.08;;;19.58;;
55784;SDS011;41709;52.536;5.688;2023-01-29T07:20:42;29.17;;;19.63;;
55784;SDS011;41709;52.536;5.688;2023-01-29T07:23:09;31.20;;;19.60;;
55784;SDS011;41709;52.536;5.688;2023-01-29T07:25:37;31.35;;;20.05;;
55784;SDS011;41709;52.536;5.688;2023-01-29T07:28:03;35.50;;;19.95;;
55784;SDS011;41709;52.536;5.688;2023-01-29T07:30:29;30.75;;;19.42;;
55784;SDS011;41709;52.536;5.688;2023-01-29T07:32:55;31.17;;;19.65;;
55784;SDS011;41709;52.536;5.688;2023-01-29T07:35:25;29.60;;;19.67;;
55784;SDS011;41709;52.536;5.688;2023-01-29T07:37:50;31.45;;;20.30;;
55784;SDS011;41709;52.536;5.688;2023-01-29T07:40:16;32.17;;;19.65;;
55784;SDS011;41709;52.536;5.688;2023-01-29T07:42:42;31.77;;;18.58;;
55784;SDS011;41709;52.536;5.688;2023-01-29T07:45:08;30.50;;;19.35;;
55784;SDS011;41709;52.536;5.688;2023-01-29T07:47:35;30.08;;;18.65;;
55784;SDS011;41709;52.536;5.688;2023-01-29T07:50:01;29.70;;;19.52;;
55784;SDS011;41709;52.536;5.688;2023-01-29T07:52:28;31.15;;;19.90;;
55784;SDS011;41709;52.536;5.688;2023-01-29T07:54:55;27.95;;;18.60;;
55784;SDS011;41709;52.536;5.688;2023-01-29T07:57:20;30.42;;;18.20;;
55784;SDS011;41709;52.536;5.688;2023-01-29T07:59:46;32.13;;;19.73;;
55784;SDS011;41709;52.536;5.688;2023-01-29T08:02:12;28.77;;;18.85;;
55784;SDS011;41709;52.536;5.688;2023-01-29T08:04:37;26.15;;;17.55;;
55784;SDS011;41709;52.536;5.688;2023-01-29T08:07:03;29.95;;;18.50;;
55784;SDS011;41709;52.536;5.688;2023-01-29T08:09:29;30.27;;;19.60;;
55784;SDS011;41709;52.536;5.688;2023-01-29T08:11:55;29.25;;;19.30;;
55784;SDS011;41709;52.536;5.688;2023-01-29T08:14:21;30.33;;;20.08;;
55784;SDS011;41709;52.536;5.688;2023-01-29T08:16:47;26.17;;;17.70;;
55784;SDS011;41709;52.536;5.688;2023-01-29T08:19:13;28.55;;;18.35;;
55784;SDS011;41709;52.536;5.688;2023-01-29T08:21:39;29.05;;;19.70;;
55784;SDS011;41709;52.536;5.688;2023-01-29T08:24:05;31.75;;;20.05;;
55784;SDS011;41709;52.536;5.688;2023-01-29T08:26:31;30.55;;;19.20;;
55784;SDS011;41709;52.536;5.688;2023-01-29T08:28:56;29.20;;;20.02;;
55784;SDS011;41709;52.536;5.688;2023-01-29T08:31:22;31.17;;;19.55;;
55784;SDS011;41709;52.536;5.688;2023-01-29T08:33:48;28.73;;;18.33;;
55784;SDS011;41709;52.536;5.688;2023-01-29T08:36:13;33.15;;;20.38;;
55784;SDS011;41709;52.536;5.688;2023-01-29T08:38:39;29.27;;;19.65;;
55784;SDS011;41709;52.536;5.688;2023-01-29T08:41:05;31.55;;;18.92;;
55784;SDS011;41709;52.536;5.688;2023-01-29T08:43:31;30.02;;;18.73;;
55784;SDS011;41709;52.536;5.688;2023-01-29T08:45:57;30.27;;;18.98;;
55784;SDS011;41709;52.536;5.688;2023-01-29T08:48:22;30.77;;;18.92;;
55784;SDS011;41709;52.536;5.688;2023-01-29T08:50:49;31.83;;;19.98;;
55784;SDS011;41709;52.536;5.688;2023-01-29T08:53:15;29.42;;;18.98;;
55784;SDS011;41709;52.536;5.688;2023-01-29T08:55:40;28.02;;;19.17;;
55784;SDS011;41709;52.536;5.688;2023-01-29T08:58:06;32.72;;;19.10;;
55784;SDS011;41709;52.536;5.688;2023-01-29T09:00:34;32.88;;;19.38;;
55784;SDS011;41709;52.536;5.688;2023-01-29T09:02:59;30.70;;;19.75;;
55784;SDS011;41709;52.536;5.688;2023-01-29T09:05:28;29.88;;;19.50;;
55784;SDS011;41709;52.536;5.688;2023-01-29T09:07:57;25.60;;;17.17;;
55784;SDS011;41709;52.536;5.688;2023-01-29T09:10:23;28.27;;;18.38;;
55784;SDS011;41709;52.536;5.688;2023-01-29T09:12:48;27.52;;;17.73;;
55784;SDS011;41709;52.536;5.688;2023-01-29T09:15:14;30.33;;;19.27;;
55784;SDS011;41709;52.536;5.688;2023-01-29T09:17:39;27.05;;;17.75;;
55784;SDS011;41709;52.536;5.688;2023-01-29T09:20:05;27.48;;;17.95;;
55784;SDS011;41709;52.536;5.688;2023-01-29T09:22:31;31.10;;;19.45;;
55784;SDS011;41709;52.536;5.688;2023-01-29T09:24:57;27.17;;;18.30;;
55784;SDS011;41709;52.536;5.688;2023-01-29T09:27:23;26.08;;;18.13;;
55784;SDS011;41709;52.536;5.688;2023-01-29T09:29:49;27.70;;;18.40;;
55784;SDS011;41709;52.536;5.688;2023-01-29T09:32:14;27.70;;;18.15;;
55784;SDS011;41709;52.536;5.688;2023-01-29T09:34:40;29.95;;;18.38;;
55784;SDS011;41709;52.536;5.688;2023-01-29T09:37:05;28.02;;;18.55;;
55784;SDS011;41709;52.536;5.688;2023-01-29T09:39:31;25.17;;;17.45;;
55784;SDS011;41709;52.536;5.688;2023-01-29T09:47:40;26.92;;;18.38;;
55784;SDS011;41709;52.536;5.688;2023-01-29T09:50:07;29.70;;;17.98;;
55784;SDS011;41709;52.536;5.688;2023-01-29T09:52:48;28.60;;;17.88;;
55784;SDS011;41709;52.536;5.688;2023-01-29T09:58:20;28.83;;;18.55;;
55784;SDS011;41709;52.536;5.688;2023-01-29T10:00:59;24.65;;;16.90;;
55784;SDS011;41709;52.536;5.688;2023-01-29T10:09:50;28.30;;;19.02;;
55784;SDS011;41709;52.536;5.688;2023-01-29T10:17:59;27.75;;;18.88;;
55784;SDS011;41709;52.536;5.688;2023-01-29T10:20:49;27.30;;;18.83;;
55784;SDS011;41709;52.536;5.688;2023-01-29T10:25:55;26.63;;;17.73;;
55784;SDS011;41709;52.536;5.688;2023-01-29T10:28:24;28.85;;;19.58;;
55784;SDS011;41709;52.536;5.688;2023-01-29T10:30:59;28.10;;;18.85;;
55784;SDS011;41709;52.536;5.688;2023-01-29T10:33:34;25.92;;;17.25;;
55784;SDS011;41709;52.536;5.688;2023-01-29T10:36:06;25.77;;;17.88;;
55784;SDS011;41709;52.536;5.688;2023-01-29T10:38:46;25.20;;;18.15;;
55784;SDS011;41709;52.536;5.688;2023-01-29T10:44:19;27.00;;;18.83;;
55784;SDS011;41709;52.536;5.688;2023-01-29T10:47:06;30.63;;;19.38;;
55784;SDS011;41709;52.536;5.688;2023-01-29T10:52:49;26.73;;;17.88;;
55784;SDS011;41709;52.536;5.688;2023-01-29T10:55:42;28.83;;;18.80;;
55784;SDS011;41709;52.536;5.688;2023-01-29T10:58:40;27.70;;;18.67;;
55784;SDS011;41709;52.536;5.688;2023-01-29T11:01:24;25.80;;;18.13;;
55784;SDS011;41709;52.536;5.688;2023-01-29T11:03:57;26.13;;;17.92;;
55784;SDS011;41709;52.536;5.688;2023-01-29T11:09:04;28.65;;;17.50;;
55784;SDS011;41709;52.536;5.688;2023-01-29T11:11:33;31.27;;;18.73;;
55784;SDS011;41709;52.536;5.688;2023-01-29T11:17:20;32.10;;;18.42;;
55784;SDS011;41709;52.536;5.688;2023-01-29T11:19:48;29.58;;;18.27;;
55784;SDS011;41709;52.536;5.688;2023-01-29T11:22:19;27.05;;;18.40;;
55784;SDS011;41709;52.536;5.688;2023-01-29T11:24:46;26.63;;;17.13;;
55784;SDS011;41709;52.536;5.688;2023-01-29T11:27:41;25.67;;;18.20;;
55784;SDS011;41709;52.536;5.688;2023-01-29T11:30:19;27.15;;;18.13;;
55784;SDS011;41709;52.536;5.688;2023-01-29T11:37:41;29.23;;;18.92;;
55784;SDS011;41709;52.536;5.688;2023-01-29T11:42:43;29.40;;;19.50;;
55784;SDS011;41709;52.536;5.688;2023-01-29T11:47:51;29.95;;;18.58;;
55784;SDS011;41709;52.536;5.688;2023-01-29T11:50:19;29.40;;;19.23;;
55784;SDS011;41709;52.536;5.688;2023-01-29T11:52:48;28.63;;;18.27;;
55784;SDS011;41709;52.536;5.688;2023-01-29T11:55:17;30.33;;;19.77;;
55784;SDS011;41709;52.536;5.688;2023-01-29T11:57:54;27.20;;;19.00;;
55784;SDS011;41709;52.536;5.688;2023-01-29T12:00:26;30.05;;;18.08;;
55784;SDS011;41709;52.536;5.688;2023-01-29T12:02:59;30.70;;;19.25;;
55784;SDS011;41709;52.536;5.688;2023-01-29T12:05:27;33.17;;;22.33;;
55784;SDS011;41709;52.536;5.688;2023-01-29T12:07:54;29.17;;;18.88;;
55784;SDS011;41709;52.536;5.688;2023-01-29T12:10:37;30.60;;;19.75;;
55784;SDS011;41709;52.536;5.688;2023-01-29T12:15:34;28.90;;;19.27;;
55784;SDS011;41709;52.536;5.688;2023-01-29T12:20:52;31.90;;;20.83;;
55784;SDS011;41709;52.536;5.688;2023-01-29T12:23:35;34.35;;;19.65;;
55784;SDS011;41709;52.536;5.688;2023-01-29T12:26:32;32.25;;;19.70;;
55784;SDS011;41709;52.536;5.688;2023-01-29T12:31:42;30.17;;;20.13;;
55784;SDS011;41709;52.536;5.688;2023-01-29T12:34:19;31.60;;;21.42;;
55784;SDS011;41709;52.536;5.688;2023-01-29T12:36:58;30.48;;;21.15;;
55784;SDS011;41709;52.536;5.688;2023-01-29T12:39:29;31.75;;;20.63;;
55784;SDS011;41709;52.536;5.688;2023-01-29T12:41:57;32.28;;;21.30;;
55784;SDS011;41709;52.536;5.688;2023-01-29T12:44:32;32.28;;;21.25;;
55784;SDS011;41709;52.536;5.688;2023-01-29T12:47:07;31.00;;;20.50;;
55784;SDS011;41709;52.536;5.688;2023-01-29T12:49:45;30.35;;;21.20;;
55784;SDS011;41709;52.536;5.688;2023-01-29T12:52:16;31.40;;;20.27;;
55784;SDS011;41709;52.536;5.688;2023-01-29T12:57:36;39.10;;;22.95;;
55784;SDS011;41709;52.536;5.688;2023-01-29T13:00:23;34.53;;;23.05;;
55784;SDS011;41709;52.536;5.688;2023-01-29T13:03:07;35.00;;;22.45;;
55784;SDS011;41709;52.536;5.688;2023-01-29T13:05:45;32.63;;;22.63;;
55784;SDS011;41709;52.536;5.688;2023-01-29T13:08:25;35.15;;;23.23;;
55784;SDS011;41709;52.536;5.688;2023-01-29T13:11:00;33.80;;;21.50;;
55784;SDS011;41709;52.536;5.688;2023-01-29T13:13:32;36.35;;;22.15;;
55784;SDS011;41709;52.536;5.688;2023-01-29T13:16:00;32.78;;;22.50;;
55784;SDS011;41709;52.536;5.688;2023-01-29T13:21:04;41.55;;;23.98;;
55784;SDS011;41709;52.536;5.688;2023-01-29T13:23:35;32.65;;;22.52;;
55784;SDS011;41709;52.536;5.688;2023-01-29T13:26:03;37.83;;;24.50;;
55784;SDS011;41709;52.536;5.688;2023-01-29T13:28:30;37.75;;;24.70;;
55784;SDS011;41709;52.536;5.688;2023-01-29T13:34:14;36.45;;;24.05;;
55784;SDS011;41709;52.536;5.688;2023-01-29T13:37:02;39.38;;;23.67;;
55784;SDS011;41709;52.536;5.688;2023-01-29T13:39:47;40.72;;;25.45;;
55784;SDS011;41709;52.536;5.688;2023-01-29T13:44:46;34.58;;;22.92;;
55784;SDS011;41709;52.536;5.688;2023-01-29T13:47:20;35.42;;;24.30;;
55784;SDS011;41709;52.536;5.688;2023-01-29T13:49:51;36.05;;;25.10;;
55784;SDS011;41709;52.536;5.688;2023-01-29T13:52:43;37.67;;;23.83;;
55784;SDS011;41709;52.536;5.688;2023-01-29T14:13:40;37.97;;;25.42;;
55784;SDS011;41709;52.536;5.688;2023-01-29T14:18:45;40.03;;;25.23;;
55784;SDS011;41709;52.536;5.688;2023-01-29T14:26:20;40.88;;;27.10;;
55784;SDS011;41709;52.536;5.688;2023-01-29T14:28:59;42.80;;;27.00;;
55784;SDS011;41709;52.536;5.688;2023-01-29T14:31:31;40.95;;;26.20;;
55784;SDS011;41709;52.536;5.688;2023-01-29T14:34:05;40.65;;;27.35;;
55784;SDS011;41709;52.536;5.688;2023-01-29T14:36:53;42.42;;;26.13;;
55784;SDS011;41709;52.536;5.688;2023-01-29T14:42:01;37.33;;;25.38;;
55784;SDS011;41709;52.536;5.688;2023-01-29T14:47:50;37.67;;;25.85;;
55784;SDS011;41709;52.536;5.688;2023-01-29T14:52:53;44.60;;;27.52;;
55784;SDS011;41709;52.536;5.688;2023-01-29T14:58:10;37.75;;;25.52;;
55784;SDS011;41709;52.536;5.688;2023-01-29T15:00:40;51.38;;;27.52;;
55784;SDS011;41709;52.536;5.688;2023-01-29T15:05:40;41.67;;;26.05;;
55784;SDS011;41709;52.536;5.688;2023-01-29T15:08:42;38.22;;;23.95;;
55784;SDS011;41709;52.536;5.688;2023-01-29T15:11:22;36.88;;;26.23;;
55784;SDS011;41709;52.536;5.688;2023-01-29T15:19:42;34.92;;;24.20;;
55784;SDS011;41709;52.536;5.688;2023-01-29T15:24:37;35.90;;;23.73;;
55784;SDS011;41709;52.536;5.688;2023-01-29T15:27:05;35.15;;;23.92;;
55784;SDS011;41709;52.536;5.688;2023-01-29T15:29:34;34.20;;;23.20;;
55784;SDS011;41709;52.536;5.688;2023-01-29T15:31:59;36.08;;;23.42;;
55784;SDS011;41709;52.536;5.688;2023-01-29T15:34:25;31.80;;;22.20;;
55784;SDS011;41709;52.536;5.688;2023-01-29T15:36:51;33.85;;;22.67;;
55784;SDS011;41709;52.536;5.688;2023-01-29T15:39:18;40.92;;;23.33;;
55784;SDS011;41709;52.536;5.688;2023-01-29T15:41:46;33.63;;;22.75;;
55784;SDS011;41709;52.536;5.688;2023-01-29T15:44:14;36.80;;;22.42;;
55784;SDS011;41709;52.536;5.688;2023-01-29T15:46:51;31.98;;;22.23;;
55784;SDS011;41709;52.536;5.688;2023-01-29T15:49:22;32.58;;;21.95;;
55784;SDS011;41709;52.536;5.688;2023-01-29T15:51:55;31.67;;;20.92;;
55784;SDS011;41709;52.536;5.688;2023-01-29T15:54:23;32.70;;;22.93;;
55784;SDS011;41709;52.536;5.688;2023-01-29T15:56:50;31.27;;;22.13;;
55784;SDS011;41709;52.536;5.688;2023-01-29T15:59:39;32.70;;;21.98;;
55784;SDS011;41709;52.536;5.688;2023-01-29T16:02:18;32.38;;;21.45;;
55784;SDS011;41709;52.536;5.688;2023-01-29T16:04:55;34.55;;;22.58;;
55784;SDS011;41709;52.536;5.688;2023-01-29T16:07:22;34.10;;;21.95;;
55784;SDS011;41709;52.536;5.688;2023-01-29T16:09:48;33.92;;;21.52;;
55784;SDS011;41709;52.536;5.688;2023-01-29T16:12:15;32.55;;;21.42;;
55784;SDS011;41709;52.536;5.688;2023-01-29T16:14:41;30.63;;;21.27;;
55784;SDS011;41709;52.536;5.688;2023-01-29T16:17:21;32.63;;;21.67;;
55784;SDS011;41709;52.536;5.688;2023-01-29T16:19:56;33.55;;;22.48;;
55784;SDS011;41709;52.536;5.688;2023-01-29T16:22:22;33.90;;;23.23;;
55784;SDS011;41709;52.536;5.688;2023-01-29T16:24:49;33.67;;;23.30;;
55784;SDS011;41709;52.536;5.688;2023-01-29T16:27:17;38.53;;;24.20;;
55784;SDS011;41709;52.536;5.688;2023-01-29T16:29:43;40.30;;;24.40;;
55784;SDS011;41709;52.536;5.688;2023-01-29T16:32:09;38.10;;;23.52;;
55784;SDS011;41709;52.536;5.688;2023-01-29T16:34:38;42.03;;;24.13;;
55784;SDS011;41709;52.536;5.688;2023-01-29T16:37:14;41.08;;;23.55;;
55784;SDS011;41709;52.536;5.688;2023-01-29T16:39:45;34.00;;;22.15;;
55784;SDS011;41709;52.536;5.688;2023-01-29T16:44:51;36.25;;;22.67;;
55784;SDS011;41709;52.536;5.688;2023-01-29T16:47:40;31.02;;;21.20;;
55784;SDS011;41709;52.536;5.688;2023-01-29T16:52:56;31.77;;;23.30;;
55784;SDS011;41709;52.536;5.688;2023-01-29T16:55:24;38.17;;;22.40;;
55784;SDS011;41709;52.536;5.688;2023-01-29T16:57:55;34.47;;;22.13;;
55784;SDS011;41709;52.536;5.688;2023-01-29T17:00:25;37.33;;;21.95;;
55784;SDS011;41709;52.536;5.688;2023-01-29T17:02:53;35.53;;;21.58;;
55784;SDS011;41709;52.536;5.688;2023-01-29T17:05:25;34.88;;;23.77;;
55784;SDS011;41709;52.536;5.688;2023-01-29T17:07:54;33.80;;;21.25;;
55784;SDS011;41709;52.536;5.688;2023-01-29T17:10:22;35.25;;;22.52;;
55784;SDS011;41709;52.536;5.688;2023-01-29T17:12:52;35.95;;;23.08;;
55784;SDS011;41709;52.536;5.688;2023-01-29T17:15:35;39.42;;;23.92;;
55784;SDS011;41709;52.536;5.688;2023-01-29T17:18:17;32.47;;;21.50;;
55784;SDS011;41709;52.536;5.688;2023-01-29T17:23:15;35.03;;;22.30;;
55784;SDS011;41709;52.536;5.688;2023-01-29T17:25:41;36.20;;;21.48;;
55784;SDS011;41709;52.536;5.688;2023-01-29T17:28:09;36.90;;;23.77;;
55784;SDS011;41709;52.536;5.688;2023-01-29T17:30:36;37.45;;;22.77;;
55784;SDS011;41709;52.536;5.688;2023-01-29T17:33:13;37.85;;;21.90;;